Ancora, New Jersey
Current Conditions -  °F | °C
As of 3:54 AM on Saturday 25 Oct 2014 (Local Time) from KACY Reporting Station
Clear Clear  
Wind Chill:   Ceiling: Unl
Heat Index:   Visibility: 10mi
Dew Point:   Wind: 7mph
Humidity: 80%   Direction: 300°WNW
Pressure: 29.9"   Gusts: NA
Location:  39.637°N, 74.7602°W
Report Text: KACY 250754Z 30006KT 10SM CLR 07/04 A2990 RMK AO2 SLP123 T00720039
Loading
Personal Weather Stations






























Interactive Weather Map
Tropical Storm Tracking
New forecast layout! Learn more

10-Day Weather Forecast

Advertisements
Track Severe Weather on mobile